Time;durP1;ratioP1;P1;durP2;ratioP2;P2;SDS_P1;SDS_P2;PMS_P1;PMS_P2;Temp;Humidity;BMP_temperature;BMP_pressure;BME280_temperature;BME280_humidity;BME280_pressure;Samples;Min_cycle;Max_cycle;Signal;HPM_P1;HPM_P2
2023/03/29 00:00:11;;;;;;;400.93;92.30;;;5.30;99.90;;;;;;5068742;28;20260;-50
2023/03/29 00:02:39;;;;;;;64.70;29.00;;;5.20;99.90;;;;;;5069226;28;20229;-49
2023/03/29 00:05:09;;;;;;;72.97;37.43;;;5.20;99.90;;;;;;5068864;28;20658;-50
2023/03/29 00:07:37;;;;;;;91.00;54.07;;;5.20;99.90;;;;;;5069127;28;20299;-49
2023/03/29 00:10:08;;;;;;;154.43;47.27;;;5.20;99.90;;;;;;5069241;28;20244;-50
2023/03/29 00:12:38;;;;;;;80.23;41.90;;;5.20;99.90;;;;;;5068784;28;20221;-50
2023/03/29 00:15:07;;;;;;;64.00;35.93;;;5.30;99.90;;;;;;5068718;28;20202;-49
2023/03/29 00:17:35;;;;;;;180.13;47.17;;;5.30;99.90;;;;;;5067183;28;20732;-49
2023/03/29 00:20:06;;;;;;;188.20;67.10;;;5.20;99.90;;;;;;5068712;28;20238;-50
2023/03/29 00:22:34;;;;;;;75.17;44.03;;;5.20;99.90;;;;;;5068472;28;20295;-49
2023/03/29 00:25:03;;;;;;;102.77;54.13;;;5.20;99.90;;;;;;5068620;28;20651;-50
2023/03/29 00:27:32;;;;;;;167.23;69.83;;;5.20;99.90;;;;;;5068528;28;20294;-50
2023/03/29 00:30:01;;;;;;;130.63;54.77;;;5.20;99.90;;;;;;5071529;28;20767;-50
2023/03/29 00:32:29;;;;;;;42.80;31.90;;;5.20;99.90;;;;;;5072541;28;20256;-50
2023/03/29 00:34:59;;;;;;;53.80;28.23;;;5.20;99.90;;;;;;5072528;28;20208;-50
2023/03/29 00:37:28;;;;;;;288.20;80.13;;;5.20;99.90;;;;;;5072746;28;20263;-53
2023/03/29 00:39:57;;;;;;;61.17;36.63;;;5.20;99.90;;;;;;5072226;28;20239;-50
2023/03/29 00:42:25;;;;;;;268.27;101.50;;;5.10;99.90;;;;;;5072467;28;20295;-50
2023/03/29 00:44:59;;;;;;;68.33;49.23;;;5.10;99.90;;;;;;5072189;28;20209;-49
2023/03/29 00:47:30;;;;;;;135.57;41.17;;;5.10;99.90;;;;;;5071772;28;20319;-50
2023/03/29 00:50:04;;;;;;;36.53;22.57;;;5.20;99.90;;;;;;5072325;28;20268;-50
2023/03/29 00:52:34;;;;;;;302.30;56.90;;;5.10;99.90;;;;;;5072207;28;20253;-50
2023/03/29 00:55:08;;;;;;;206.20;61.77;;;5.20;99.90;;;;;;5072006;28;20554;-49
2023/03/29 00:57:39;;;;;;;65.77;34.37;;;5.20;99.90;;;;;;5072175;28;20285;-50
2023/03/29 01:00:10;;;;;;;281.43;92.37;;;5.20;99.90;;;;;;5071882;28;20235;-50
2023/03/29 01:02:39;;;;;;;168.43;44.27;;;5.20;99.90;;;;;;5072138;28;20239;-50
2023/03/29 01:05:13;;;;;;;296.17;56.20;;;5.20;99.90;;;;;;5071713;28;20871;-50
2023/03/29 01:07:46;;;;;;;122.07;46.07;;;5.10;99.90;;;;;;5071770;28;20208;-50
2023/03/29 01:10:18;;;;;;;114.23;42.90;;;5.10;99.90;;;;;;5072040;28;20229;-49
2023/03/29 01:12:51;;;;;;;146.03;42.17;;;5.10;99.90;;;;;;5071816;28;20299;-50
2023/03/29 01:15:24;;;;;;;69.67;44.33;;;5.10;99.90;;;;;;5065706;28;20700;-50
2023/03/29 01:17:54;;;;;;;79.33;47.90;;;5.10;99.90;;;;;;5071706;28;20212;-48
2023/03/29 01:20:29;;;;;;;291.33;78.67;;;5.10;99.90;;;;;;5071635;28;20607;-50
2023/03/29 01:23:16;;;;;;;283.43;71.97;;;5.10;99.90;;;;;;5071715;28;20310;-50
2023/03/29 01:25:54;;;;;;;97.47;47.27;;;5.10;99.90;;;;;;5071515;28;20224;-50
2023/03/29 01:28:28;;;;;;;51.20;28.33;;;5.10;99.90;;;;;;5071737;28;20250;-49
2023/03/29 01:31:02;;;;;;;76.67;43.10;;;5.20;99.90;;;;;;5070677;28;20649;-50
2023/03/29 01:33:35;;;;;;;127.40;53.23;;;5.20;99.90;;;;;;5071452;28;20772;-49
2023/03/29 01:36:12;;;;;;;111.67;45.30;;;5.10;99.90;;;;;;5071383;28;20230;-49
2023/03/29 01:38:44;;;;;;;45.50;25.83;;;5.10;99.90;;;;;;5071656;28;20218;-50
2023/03/29 01:41:12;;;;;;;77.83;47.60;;;5.20;99.90;;;;;;5070801;28;20207;-49
2023/03/29 01:43:45;;;;;;;90.60;39.83;;;5.20;99.90;;;;;;5071181;28;20293;-50
2023/03/29 01:46:19;;;;;;;74.57;45.47;;;5.20;99.90;;;;;;5071131;28;20322;-49
2023/03/29 01:48:51;;;;;;;139.40;40.77;;;5.20;99.90;;;;;;5060160;28;20572;-49
2023/03/29 01:51:23;;;;;;;55.10;30.83;;;5.10;99.90;;;;;;5071036;28;20231;-50
2023/03/29 01:53:56;;;;;;;67.03;42.27;;;5.10;99.90;;;;;;5071045;28;20293;-49
2023/03/29 01:56:28;;;;;;;34.23;23.57;;;5.20;99.90;;;;;;5070806;28;20644;-49
2023/03/29 01:59:02;;;;;;;78.40;39.57;;;5.20;99.90;;;;;;5071207;28;20206;-49
2023/03/29 02:01:36;;;;;;;50.23;30.27;;;5.20;99.90;;;;;;5070647;28;20210;-50
2023/03/29 02:04:09;;;;;;;165.03;57.27;;;5.20;99.90;;;;;;5070665;28;20212;-48
2023/03/29 02:06:39;;;;;;;66.93;36.70;;;5.20;99.90;;;;;;5070748;28;20313;-50
2023/03/29 02:09:07;;;;;;;39.67;19.33;;;5.20;99.90;;;;;;5070866;28;20205;-50
2023/03/29 02:11:36;;;;;;;63.13;33.20;;;5.30;99.90;;;;;;5070506;28;20215;-49
2023/03/29 02:14:06;;;;;;;1999.90;457.93;;;5.20;99.90;;;;;;5070690;28;20207;-50
2023/03/29 02:16:35;;;;;;;52.07;23.37;;;5.30;99.90;;;;;;5070008;28;20234;-49
2023/03/29 02:19:05;;;;;;;62.40;33.33;;;5.30;99.90;;;;;;5070757;28;20288;-50
2023/03/29 02:21:40;;;;;;;58.27;34.07;;;5.30;99.90;;;;;;5070565;28;20295;-50
2023/03/29 02:24:14;;;;;;;161.47;50.23;;;5.30;99.90;;;;;;5070446;28;20578;-49
2023/03/29 02:26:42;;;;;;;38.73;19.40;;;5.30;99.90;;;;;;5070406;28;20240;-50
2023/03/29 02:29:11;;;;;;;38.83;20.53;;;5.20;99.90;;;;;;5070082;28;20302;-49
2023/03/29 02:31:44;;;;;;;56.23;32.23;;;5.20;99.90;;;;;;5070448;28;20321;-50
2023/03/29 02:34:18;;;;;;;67.47;39.00;;;5.20;99.90;;;;;;5069987;28;20562;-50
2023/03/29 02:36:50;;;;;;;51.00;28.43;;;5.30;99.90;;;;;;5070063;28;20324;-49
2023/03/29 02:39:20;;;;;;;63.90;45.47;;;5.20;99.90;;;;;;5069872;28;20294;-50
2023/03/29 02:41:50;;;;;;;75.67;37.50;;;5.20;99.90;;;;;;5069840;28;20957;-49
2023/03/29 02:44:24;;;;;;;46.13;27.47;;;5.20;99.90;;;;;;5070102;28;20242;-49
2023/03/29 02:46:56;;;;;;;76.90;49.20;;;5.20;99.90;;;;;;5069982;28;20232;-50
2023/03/29 02:49:25;;;;;;;63.00;35.10;;;5.30;99.90;;;;;;5070095;28;20216;-50
2023/03/29 02:51:56;;;;;;;54.30;27.57;;;5.20;99.90;;;;;;5054904;28;20704;-50
2023/03/29 02:54:28;;;;;;;42.93;26.53;;;5.20;99.90;;;;;;5069647;28;20299;-50
2023/03/29 02:56:58;;;;;;;54.20;29.07;;;5.20;99.90;;;;;;5069771;28;20230;-49
2023/03/29 02:59:29;;;;;;;150.77;33.47;;;5.20;99.90;;;;;;5069905;28;20293;-50
2023/03/29 03:01:58;;;;;;;85.93;38.13;;;5.20;99.90;;;;;;5069674;28;20295;-50
2023/03/29 03:04:26;;;;;;;42.30;17.20;;;5.20;99.90;;;;;;5069700;28;20232;-50
2023/03/29 03:06:54;;;;;;;58.53;36.50;;;5.10;99.90;;;;;;5069273;28;20239;-50
2023/03/29 03:09:22;;;;;;;20.03;15.37;;;5.20;99.90;;;;;;5069863;28;20208;-50
2023/03/29 03:11:50;;;;;;;48.03;20.87;;;5.20;99.90;;;;;;5069496;28;20223;-50
2023/03/29 03:14:21;;;;;;;58.77;39.60;;;5.10;99.90;;;;;;5069969;28;20676;-50
2023/03/29 03:16:51;;;;;;;44.47;26.00;;;5.20;99.90;;;;;;5069232;28;20239;-50
2023/03/29 03:19:20;;;;;;;42.10;23.23;;;5.20;99.90;;;;;;5069887;28;20206;-49
2023/03/29 03:21:48;;;;;;;57.80;36.60;;;5.20;99.90;;;;;;5069054;28;20262;-50
2023/03/29 03:24:16;;;;;;;50.97;33.63;;;5.20;99.90;;;;;;5069188;28;20207;-50
2023/03/29 03:26:45;;;;;;;91.87;51.07;;;5.30;99.90;;;;;;5069011;28;20262;-50
2023/03/29 03:29:14;;;;;;;104.17;58.10;;;5.30;99.90;;;;;;5068967;28;20299;-50
2023/03/29 03:31:43;;;;;;;67.87;35.60;;;5.30;99.90;;;;;;5072518;28;20268;-50
2023/03/29 03:34:12;;;;;;;49.00;28.43;;;5.30;99.90;;;;;;5074194;28;20221;-50
2023/03/29 03:36:40;;;;;;;132.50;47.57;;;5.30;99.90;;;;;;5074207;28;20251;-50
2023/03/29 03:39:10;;;;;;;54.03;25.87;;;5.30;99.90;;;;;;5074576;28;20217;-50
2023/03/29 03:41:38;;;;;;;44.87;26.23;;;5.30;99.90;;;;;;5071524;28;20714;-50
2023/03/29 03:44:06;;;;;;;65.67;31.97;;;5.30;99.90;;;;;;5068529;28;20213;-50
2023/03/29 03:46:34;;;;;;;40.87;27.70;;;5.30;99.90;;;;;;5069010;28;20319;-49
2023/03/29 03:49:03;;;;;;;90.30;36.83;;;5.30;99.90;;;;;;5068986;28;20258;-50
2023/03/29 03:51:32;;;;;;;161.97;50.40;;;5.30;99.90;;;;;;5069451;28;20300;-49
2023/03/29 03:54:00;;;;;;;151.97;51.67;;;5.30;99.90;;;;;;5069406;28;20223;-50
2023/03/29 03:56:29;;;;;;;70.20;34.43;;;5.30;99.90;;;;;;5068653;28;20230;-50
2023/03/29 03:58:57;;;;;;;121.90;56.47;;;5.30;99.90;;;;;;5069219;28;20209;-49
2023/03/29 04:01:26;;;;;;;50.20;32.10;;;5.30;99.90;;;;;;5068187;28;20814;-49
2023/03/29 04:03:54;;;;;;;39.43;22.83;;;5.30;99.90;;;;;;5068825;28;20214;-51
2023/03/29 04:06:22;;;;;;;51.57;30.07;;;5.30;99.90;;;;;;5068968;28;20266;-50
2023/03/29 04:08:52;;;;;;;70.03;41.50;;;5.30;99.90;;;;;;5068250;28;20858;-49
2023/03/29 04:11:20;;;;;;;125.87;38.73;;;5.30;99.90;;;;;;5069029;28;20203;-50
2023/03/29 04:13:48;;;;;;;92.07;43.70;;;5.30;99.90;;;;;;5068417;28;20219;-50
2023/03/29 04:16:16;;;;;;;45.23;23.13;;;5.40;99.90;;;;;;5068559;28;20230;-50
2023/03/29 04:18:44;;;;;;;80.00;37.70;;;5.40;99.90;;;;;;5068352;28;20739;-50
2023/03/29 04:21:12;;;;;;;44.33;24.30;;;5.40;99.90;;;;;;5068577;28;20231;-49
2023/03/29 04:23:41;;;;;;;42.93;25.43;;;5.30;99.90;;;;;;5068047;28;20684;-50
2023/03/29 04:26:11;;;;;;;68.13;41.73;;;5.40;99.90;;;;;;5068343;28;20715;-49
2023/03/29 04:28:39;;;;;;;78.90;41.23;;;5.40;99.90;;;;;;5059676;28;20239;-50
2023/03/29 04:31:10;;;;;;;54.50;31.87;;;5.40;99.90;;;;;;5068314;28;20683;-50
2023/03/29 04:33:38;;;;;;;28.20;16.60;;;5.40;99.90;;;;;;5068587;28;20205;-50
2023/03/29 04:36:08;;;;;;;29.83;22.17;;;5.40;99.90;;;;;;5068300;28;20235;-49
2023/03/29 04:38:36;;;;;;;78.77;37.73;;;5.40;99.90;;;;;;5068288;28;20271;-50
2023/03/29 04:41:05;;;;;;;242.67;67.90;;;5.30;99.90;;;;;;5068449;28;20223;-50
2023/03/29 04:43:34;;;;;;;79.90;44.50;;;5.30;99.90;;;;;;5068396;28;20207;-50
2023/03/29 04:46:06;;;;;;;50.30;28.20;;;5.30;99.90;;;;;;5068509;28;20656;-49
2023/03/29 04:48:36;;;;;;;42.07;24.40;;;5.20;99.90;;;;;;5068299;28;20670;-49
2023/03/29 04:51:04;;;;;;;119.53;55.90;;;5.20;99.90;;;;;;5068627;28;20197;-49
2023/03/29 04:53:32;;;;;;;70.57;51.17;;;5.20;99.90;;;;;;5068353;28;20210;-50
2023/03/29 04:56:01;;;;;;;99.17;32.63;;;5.30;99.90;;;;;;5068464;28;20265;-50
2023/03/29 04:58:29;;;;;;;64.47;34.47;;;5.20;99.90;;;;;;5067997;28;20206;-50
2023/03/29 05:01:00;;;;;;;48.50;27.60;;;5.20;99.90;;;;;;5068249;28;20242;-50
2023/03/29 05:03:29;;;;;;;48.47;28.07;;;5.20;99.90;;;;;;5068669;28;20242;-50
2023/03/29 05:06:05;;;;;;;80.33;31.17;;;5.20;99.90;;;;;;5068717;28;20681;-50
2023/03/29 05:08:33;;;;;;;52.20;34.60;;;5.20;99.90;;;;;;5068203;28;20222;-50
2023/03/29 05:11:02;;;;;;;65.67;41.37;;;5.30;99.90;;;;;;5068508;28;20663;-50
2023/03/29 05:13:30;;;;;;;70.40;44.17;;;5.30;99.90;;;;;;5067973;28;20264;-50
2023/03/29 05:16:00;;;;;;;33.63;21.83;;;5.30;99.90;;;;;;5070731;28;20228;-50
2023/03/29 05:18:29;;;;;;;26.73;20.03;;;5.30;99.90;;;;;;5072050;28;20301;-50
2023/03/29 05:20:58;;;;;;;206.23;46.40;;;5.20;99.90;;;;;;5071797;28;20212;-49
2023/03/29 05:23:27;;;;;;;110.53;58.07;;;5.30;99.90;;;;;;5071692;28;20213;-50
2023/03/29 05:25:56;;;;;;;54.83;35.70;;;5.30;99.90;;;;;;5071713;28;20226;-51
2023/03/29 05:28:24;;;;;;;76.90;41.37;;;5.30;99.90;;;;;;5071616;28;20235;-49
2023/03/29 05:31:01;;;;;;;181.63;53.63;;;5.40;99.90;;;;;;5071664;28;20243;-50
2023/03/29 05:33:30;;;;;;;37.70;20.83;;;5.40;99.90;;;;;;5071584;28;20215;-50
2023/03/29 05:36:01;;;;;;;367.47;99.03;;;5.40;99.90;;;;;;5071509;28;20265;-49
2023/03/29 05:38:31;;;;;;;92.43;44.70;;;5.40;99.90;;;;;;5071286;28;20684;-50
2023/03/29 05:40:59;;;;;;;94.13;31.10;;;5.40;99.90;;;;;;5071229;28;20219;-49
2023/03/29 05:43:28;;;;;;;111.13;47.57;;;5.40;99.90;;;;;;5071720;28;20204;-49
2023/03/29 05:45:56;;;;;;;52.37;34.27;;;5.30;99.90;;;;;;5071164;28;20228;-50
2023/03/29 05:48:27;;;;;;;127.80;51.77;;;5.30;99.90;;;;;;5071105;28;20214;-50
2023/03/29 05:50:56;;;;;;;293.53;71.47;;;5.30;99.90;;;;;;5071291;28;20246;-50
2023/03/29 05:53:25;;;;;;;53.07;36.27;;;5.40;99.90;;;;;;5071320;28;20199;-50
2023/03/29 05:55:54;;;;;;;428.13;168.93;;;5.40;99.90;;;;;;5071340;28;20264;-49
2023/03/29 05:58:25;;;;;;;229.33;83.17;;;5.50;99.90;;;;;;5071030;28;20757;-50
2023/03/29 06:00:53;;;;;;;727.90;103.13;;;5.50;99.90;;;;;;5072143;28;20525;-50
2023/03/29 06:03:24;;;;;;;270.30;83.60;;;5.40;99.90;;;;;;5071846;28;20326;-49
2023/03/29 06:05:58;;;;;;;473.40;100.77;;;5.50;99.90;;;;;;5072249;28;20230;-51
2023/03/29 06:08:26;;;;;;;87.30;33.77;;;5.50;99.90;;;;;;5071605;28;20688;-52
2023/03/29 06:10:59;;;;;;;84.73;47.30;;;5.50;99.90;;;;;;5071368;28;20662;-51
2023/03/29 06:13:32;;;;;;;863.97;245.03;;;5.70;99.90;;;;;;5070665;28;20211;-51
2023/03/29 06:16:00;;;;;;;117.87;57.13;;;5.70;99.90;;;;;;5070492;28;20231;-50
2023/03/29 06:18:28;;;;;;;172.63;53.93;;;5.80;99.90;;;;;;5070754;28;20640;-50
2023/03/29 06:20:58;;;;;;;187.07;55.13;;;5.90;99.90;;;;;;5070644;28;20211;-51
2023/03/29 06:23:26;;;;;;;120.80;58.00;;;6.00;99.90;;;;;;5070341;28;20251;-50
2023/03/29 06:25:55;;;;;;;721.37;234.87;;;6.10;99.90;;;;;;5069674;28;20248;-50
2023/03/29 06:28:23;;;;;;;213.53;57.07;;;6.10;99.90;;;;;;5069849;28;20749;-51
2023/03/29 06:30:54;;;;;;;884.13;177.53;;;6.10;99.90;;;;;;5070427;28;20240;-51
2023/03/29 06:33:24;;;;;;;486.50;122.87;;;6.20;99.90;;;;;;5070258;28;20665;-51
2023/03/29 06:35:52;;;;;;;813.83;163.37;;;6.30;99.90;;;;;;5070199;28;20237;-51
2023/03/29 06:38:21;;;;;;;1930.93;283.93;;;6.60;99.90;;;;;;5070311;28;20212;-51
2023/03/29 06:40:50;;;;;;;688.90;147.43;;;7.10;99.90;;;;;;5070404;28;20291;-50
2023/03/29 06:43:18;;;;;;;1999.90;391.77;;;7.30;99.90;;;;;;5069935;28;20890;-50
2023/03/29 06:45:46;;;;;;;1006.77;198.23;;;7.20;99.90;;;;;;5070283;28;20312;-51
2023/03/29 06:48:14;;;;;;;838.23;190.67;;;7.20;99.90;;;;;;5063049;28;20201;-50
2023/03/29 06:50:42;;;;;;;1965.03;354.37;;;7.10;99.90;;;;;;5063162;28;20244;-50
2023/03/29 06:53:10;;;;;;;818.37;158.17;;;7.10;99.90;;;;;;5069871;28;20824;-50
2023/03/29 06:55:40;;;;;;;277.60;94.70;;;7.00;99.90;;;;;;5069426;28;20800;-50
2023/03/29 06:58:08;;;;;;;151.73;59.93;;;6.90;99.90;;;;;;5069657;28;20213;-49
2023/03/29 07:00:38;;;;;;;977.53;235.73;;;6.90;99.90;;;;;;5069652;28;20303;-50
2023/03/29 07:03:09;;;;;;;212.10;73.70;;;6.90;99.90;;;;;;5069413;28;20283;-50
2023/03/29 07:05:39;;;;;;;487.23;122.30;;;6.90;99.90;;;;;;5069553;28;20232;-51
2023/03/29 07:08:15;;;;;;;587.53;156.27;;;7.00;99.90;;;;;;5069406;28;20241;-51
2023/03/29 07:10:47;;;;;;;276.33;53.00;;;7.10;99.90;;;;;;5069851;28;20212;-51
2023/03/29 07:13:16;;;;;;;500.90;125.80;;;7.10;99.90;;;;;;5061657;28;20234;-51
2023/03/29 07:15:44;;;;;;;127.87;60.00;;;7.10;99.90;;;;;;5068933;28;20249;-50
2023/03/29 07:18:12;;;;;;;632.83;182.23;;;7.10;99.90;;;;;;5067429;28;20216;-50
2023/03/29 07:20:41;;;;;;;440.47;137.13;;;7.00;99.90;;;;;;5068336;28;20300;-51
2023/03/29 07:23:10;;;;;;;548.30;119.20;;;7.00;99.90;;;;;;5069331;28;20247;-50
2023/03/29 07:25:39;;;;;;;909.20;140.03;;;7.00;99.90;;;;;;5069194;28;20231;-51
2023/03/29 07:28:09;;;;;;;694.97;194.07;;;7.00;99.90;;;;;;5069359;28;20204;-50
2023/03/29 07:30:38;;;;;;;946.53;182.97;;;6.90;99.90;;;;;;5069271;28;20213;-51
2023/03/29 07:33:06;;;;;;;725.37;118.70;;;6.90;99.90;;;;;;5069198;28;20205;-50
2023/03/29 07:35:34;;;;;;;172.63;56.63;;;6.80;99.90;;;;;;5068630;28;20889;-49
2023/03/29 07:38:03;;;;;;;1130.87;287.03;;;6.70;99.90;;;;;;5068604;28;20726;-51
2023/03/29 07:40:31;;;;;;;909.50;191.70;;;6.80;99.90;;;;;;5069101;28;20236;-51
2023/03/29 07:42:59;;;;;;;1665.43;300.33;;;6.80;99.90;;;;;;5068632;28;20260;-51
2023/03/29 07:45:29;;;;;;;1461.30;204.90;;;6.80;99.90;;;;;;5069017;28;20259;-51
2023/03/29 07:47:59;;;;;;;375.23;86.20;;;6.80;99.90;;;;;;5068448;28;20227;-51
2023/03/29 07:50:28;;;;;;;843.40;158.03;;;6.80;99.90;;;;;;5069417;28;20247;-51
2023/03/29 07:52:56;;;;;;;454.97;97.17;;;6.80;99.90;;;;;;5069002;28;20673;-51
2023/03/29 07:55:24;;;;;;;71.47;43.07;;;6.70;99.90;;;;;;5068488;28;20288;-51
2023/03/29 07:57:52;;;;;;;1999.90;303.50;;;6.80;99.90;;;;;;5069056;28;20209;-51
2023/03/29 08:00:23;;;;;;;1033.87;226.13;;;6.70;99.90;;;;;;5068577;28;20692;-50
2023/03/29 08:02:53;;;;;;;1683.33;379.03;;;6.70;99.90;;;;;;5068850;28;20229;-51
2023/03/29 08:05:22;;;;;;;668.07;150.03;;;6.70;99.90;;;;;;5068896;28;20205;-50
2023/03/29 08:08:08;;;;;;;572.27;132.53;;;6.80;99.90;;;;;;5069101;28;20207;-50
2023/03/29 08:10:38;;;;;;;926.20;176.57;;;6.90;99.90;;;;;;5068904;28;20233;-51
2023/03/29 08:13:08;;;;;;;1434.30;225.03;;;7.10;99.90;;;;;;5068854;28;20296;-50
2023/03/29 08:15:37;;;;;;;382.60;90.57;;;7.20;99.90;;;;;;5068041;28;20258;-51
2023/03/29 08:18:07;;;;;;;393.57;106.77;;;7.30;99.90;;;;;;5068794;28;20201;-52
2023/03/29 08:20:35;;;;;;;1393.97;256.67;;;7.40;99.90;;;;;;5068495;28;20284;-50
2023/03/29 08:23:04;;;;;;;1246.93;243.83;;;7.40;99.90;;;;;;5068386;28;20675;-51
2023/03/29 08:25:33;;;;;;;238.57;68.73;;;7.40;99.90;;;;;;5068352;28;20748;-51
2023/03/29 08:28:01;;;;;;;1073.10;281.70;;;7.50;99.90;;;;;;5068721;28;20647;-50
2023/03/29 08:30:29;;;;;;;420.53;121.40;;;7.50;99.90;;;;;;5068915;28;20625;-51
2023/03/29 08:32:57;;;;;;;664.47;153.13;;;7.50;99.90;;;;;;5068534;28;20241;-51
2023/03/29 08:35:26;;;;;;;826.00;230.60;;;7.50;99.90;;;;;;5068577;28;20240;-50
2023/03/29 08:37:54;;;;;;;1999.90;352.33;;;7.50;99.90;;;;;;5068522;28;20228;-51
2023/03/29 08:40:26;;;;;;;978.60;204.17;;;7.50;99.90;;;;;;5068690;28;20227;-50
2023/03/29 08:43:12;;;;;;;1069.60;188.73;;;7.50;99.90;;;;;;5068608;28;20209;-51
2023/03/29 08:45:50;;;;;;;525.87;160.70;;;7.50;99.90;;;;;;5068595;28;20236;-50
2023/03/29 08:48:27;;;;;;;923.83;218.63;;;7.50;99.90;;;;;;5068374;28;20254;-50
2023/03/29 08:51:01;;;;;;;1566.50;325.97;;;7.50;99.90;;;;;;5071125;28;20212;-50
2023/03/29 08:53:33;;;;;;;309.03;76.77;;;7.50;99.90;;;;;;5072308;28;20216;-50
2023/03/29 08:56:04;;;;;;;1036.17;204.93;;;7.60;99.90;;;;;;5072425;28;20221;-51
2023/03/29 08:58:34;;;;;;;1999.90;471.40;;;7.70;99.90;;;;;;5058226;28;20298;-50
2023/03/29 09:01:07;;;;;;;327.37;76.17;;;7.60;99.90;;;;;;5072306;28;20295;-51
2023/03/29 09:03:39;;;;;;;645.47;138.20;;;7.70;99.90;;;;;;5072028;28;20216;-50
2023/03/29 09:06:11;;;;;;;1127.80;190.90;;;7.80;99.90;;;;;;5072088;28;20592;-50
2023/03/29 09:08:42;;;;;;;1838.40;447.70;;;8.00;99.90;;;;;;5072383;28;20204;-51
2023/03/29 09:11:28;;;;;;;1591.53;238.67;;;8.10;99.90;;;;;;5071678;28;20296;-51
2023/03/29 09:14:06;;;;;;;1036.10;182.20;;;8.10;99.90;;;;;;5071973;28;20280;-50
2023/03/29 09:16:40;;;;;;;878.13;193.60;;;8.10;99.90;;;;;;5071803;28;20782;-51
2023/03/29 09:19:17;;;;;;;476.30;162.97;;;8.30;99.90;;;;;;5072047;28;20292;-51
2023/03/29 09:21:55;;;;;;;1999.90;377.20;;;8.60;99.90;;;;;;5071919;28;20238;-51
2023/03/29 09:24:44;;;;;;;191.90;57.37;;;8.80;99.90;;;;;;5071777;28;20656;-52
2023/03/29 09:27:19;;;;;;;1633.90;361.47;;;9.00;99.90;;;;;;5071408;28;20254;-51
2023/03/29 09:29:58;;;;;;;1999.90;452.90;;;9.30;99.90;;;;;;5067644;28;20210;-50
2023/03/29 09:32:30;;;;;;;1999.90;673.77;;;9.30;99.90;;;;;;5069646;28;20227;-51
2023/03/29 09:35:07;;;;;;;1999.90;460.73;;;9.40;99.90;;;;;;5062233;28;20682;-51
2023/03/29 09:37:40;;;;;;;1969.90;395.20;;;9.50;99.90;;;;;;5071760;28;20209;-51
2023/03/29 09:40:12;;;;;;;1999.90;452.13;;;9.70;99.90;;;;;;5071711;28;20292;-51
2023/03/29 09:42:42;;;;;;;1999.90;443.23;;;9.80;99.90;;;;;;5071706;28;20205;-51
2023/03/29 09:45:10;;;;;;;1999.90;423.63;;;10.00;99.90;;;;;;5071342;28;20256;-52
2023/03/29 09:47:43;;;;;;;1999.90;533.33;;;10.00;99.90;;;;;;5070980;28;20319;-51
2023/03/29 09:50:15;;;;;;;1999.90;520.80;;;9.90;99.90;;;;;;5071619;28;20209;-50
2023/03/29 09:52:59;;;;;;;1999.90;538.23;;;9.90;99.90;;;;;;5071543;28;20201;-50
2023/03/29 09:55:29;;;;;;;1999.90;422.70;;;9.80;99.90;;;;;;5071313;28;20232;-50
2023/03/29 09:58:01;;;;;;;1999.90;541.93;;;10.00;99.90;;;;;;5071472;28;20201;-51
2023/03/29 10:00:29;;;;;;;1999.90;523.27;;;10.00;99.90;;;;;;5070785;28;20304;-51
2023/03/29 10:02:58;;;;;;;1999.90;750.23;;;10.10;99.90;;;;;;5071089;28;20215;-50
2023/03/29 10:05:30;;;;;;;1999.90;546.47;;;10.20;99.90;;;;;;5070686;28;20705;-51
2023/03/29 10:08:02;;;;;;;1999.90;597.70;;;10.40;99.90;;;;;;5071199;28;20193;-51
2023/03/29 10:10:33;;;;;;;1999.90;651.60;;;10.40;99.90;;;;;;5071473;28;20205;-51
2023/03/29 10:13:05;;;;;;;1999.90;444.83;;;10.40;99.90;;;;;;5071105;28;20255;-51
2023/03/29 10:15:33;;;;;;;1999.90;523.53;;;10.60;99.90;;;;;;5070929;28;20296;-51
2023/03/29 10:18:06;;;;;;;1999.90;666.43;;;10.70;99.90;;;;;;5070915;28;20300;-51
2023/03/29 10:20:36;;;;;;;1999.90;643.97;;;10.80;99.90;;;;;;5071356;28;20211;-51
2023/03/29 10:23:08;;;;;;;1999.90;740.17;;;10.90;99.90;;;;;;5071056;28;20258;-50
2023/03/29 10:25:39;;;;;;;1999.90;720.93;;;10.80;99.90;;;;;;5070372;28;20323;-51
2023/03/29 10:28:14;;;;;;;1999.90;543.53;;;10.90;99.90;;;;;;5061012;28;20201;-51
2023/03/29 10:30:44;;;;;;;1999.90;765.20;;;10.90;99.90;;;;;;5071052;28;20240;-51
2023/03/29 10:33:17;;;;;;;1999.90;661.47;;;10.80;99.90;;;;;;5069367;28;20283;-51
2023/03/29 10:35:48;;;;;;;1999.90;604.63;;;10.80;99.90;;;;;;5070816;28;20668;-51
2023/03/29 10:38:20;;;;;;;1999.90;445.07;;;10.90;99.90;;;;;;5070490;28;20292;-51
2023/03/29 10:40:50;;;;;;;1999.90;848.23;;;10.90;99.90;;;;;;5070369;28;20267;-51
2023/03/29 10:43:23;;;;;;;1999.90;933.30;;;10.70;99.90;;;;;;5070603;28;20228;-51
2023/03/29 10:45:53;;;;;;;1999.90;774.83;;;10.50;99.90;;;;;;5070042;28;20229;-51
2023/03/29 10:48:28;;;;;;;1999.90;388.90;;;10.50;99.90;;;;;;5070335;28;20237;-51
2023/03/29 10:50:59;;;;;;;1999.90;616.47;;;10.50;99.90;;;;;;5069838;28;20213;-50
2023/03/29 10:53:32;;;;;;;1999.90;783.27;;;10.60;99.90;;;;;;5069927;28;20674;-51
2023/03/29 10:56:16;;;;;;;1999.90;602.93;;;10.80;99.90;;;;;;5056283;28;20247;-51
2023/03/29 10:59:07;;;;;;;1999.90;633.90;;;10.80;99.90;;;;;;5070289;28;20235;-51
2023/03/29 11:01:44;;;;;;;1999.90;587.27;;;10.80;99.90;;;;;;5070234;28;20241;-50
2023/03/29 11:04:22;;;;;;;1999.90;604.33;;;10.80;99.90;;;;;;5070277;28;20231;-50
2023/03/29 11:07:03;;;;;;;1999.90;741.30;;;10.80;99.90;;;;;;5069744;28;20232;-51
2023/03/29 11:09:45;;;;;;;1999.90;748.83;;;10.90;99.90;;;;;;5069868;28;20296;-51
2023/03/29 11:12:18;;;;;;;1999.90;691.30;;;11.10;99.90;;;;;;5069119;28;20240;-51
2023/03/29 11:14:55;;;;;;;1999.90;944.93;;;11.40;99.90;;;;;;5069000;28;20292;-51
2023/03/29 11:17:34;;;;;;;1999.90;603.73;;;11.40;99.90;;;;;;5069340;28;20315;-51
2023/03/29 11:20:15;;;;;;;1999.90;696.03;;;11.70;99.90;;;;;;5069552;28;20609;-51
2023/03/29 11:22:49;;;;;;;1999.90;795.47;;;11.80;99.90;;;;;;5068839;28;20240;-51
2023/03/29 11:25:38;;;;;;;1999.90;703.53;;;11.80;99.90;;;;;;5070523;28;20796;-51
2023/03/29 11:28:14;;;;;;;1999.90;790.53;;;11.80;99.90;;;;;;5059280;28;20705;-49
2023/03/29 11:30:48;;;;;;;1999.90;853.77;;;11.90;99.90;;;;;;5063991;28;20236;-50
2023/03/29 11:33:28;;;;;;;1999.90;732.27;;;12.00;99.90;;;;;;5069635;28;20212;-51
2023/03/29 11:36:08;;;;;;;1999.90;794.57;;;12.00;99.90;;;;;;5072538;28;20315;-50
2023/03/29 11:38:40;;;;;;;1999.90;724.77;;;11.90;99.90;;;;;;5056974;28;20742;-51
2023/03/29 11:41:18;;;;;;;1999.90;735.00;;;11.90;99.90;;;;;;5079583;28;20208;-50
2023/03/29 11:43:51;;;;;;;1999.90;880.13;;;11.90;99.90;;;;;;5071411;28;20196;-51
2023/03/29 11:46:26;;;;;;;1999.90;857.20;;;11.90;99.90;;;;;;5067255;28;20232;-50
2023/03/29 11:49:00;;;;;;;1999.90;803.77;;;11.80;99.90;;;;;;5068198;28;20545;-51
2023/03/29 11:51:32;;;;;;;1999.90;676.67;;;11.90;99.90;;;;;;5067250;28;20235;-51
2023/03/29 11:54:04;;;;;;;1999.90;621.03;;;12.10;99.90;;;;;;5054779;28;20201;-50
2023/03/29 11:56:40;;;;;;;1999.90;757.53;;;12.10;99.90;;;;;;5068371;28;20248;-51
2023/03/29 11:59:14;;;;;;;1999.90;669.80;;;12.10;99.90;;;;;;5068896;28;20192;-50
2023/03/29 12:01:48;;;;;;;1999.90;762.83;;;12.20;99.90;;;;;;5068459;28;20306;-51
2023/03/29 12:04:21;;;;;;;1999.90;793.07;;;12.50;99.90;;;;;;5068811;28;20212;-50
2023/03/29 12:07:01;;;;;;;1999.90;666.00;;;12.50;99.90;;;;;;5068832;28;20220;-50
2023/03/29 12:09:34;;;;;;;1999.90;756.97;;;12.60;99.90;;;;;;5068980;28;20250;-51
2023/03/29 12:12:08;;;;;;;1999.90;921.87;;;12.70;99.90;;;;;;5068395;28;20391;-50
2023/03/29 12:14:53;;;;;;;1999.90;896.73;;;12.70;99.90;;;;;;5068570;28;20780;-51
2023/03/29 12:17:27;;;;;;;1999.90;734.67;;;12.80;99.90;;;;;;5067983;28;20312;-51
2023/03/29 12:20:04;;;;;;;1999.90;620.20;;;13.00;99.90;;;;;;5055667;28;20238;-51
2023/03/29 12:22:32;;;;;;;1999.90;777.87;;;13.20;99.90;;;;;;5068198;28;20216;-51
2023/03/29 12:25:02;;;;;;;1999.90;746.50;;;13.30;99.90;;;;;;5069746;28;20270;-51
2023/03/29 12:27:40;;;;;;;1999.90;865.33;;;13.40;99.90;;;;;;5072131;28;20307;-51
2023/03/29 12:30:44;;;;;;;1999.90;752.03;;;13.50;99.90;;;;;;5072796;28;20669;-50
2023/03/29 12:33:30;;;;;;;1999.90;942.00;;;13.50;99.90;;;;;;5071801;28;20204;-51
2023/03/29 12:36:13;;;;;;;1999.90;883.03;;;13.40;99.90;;;;;;5072350;28;20229;-51
2023/03/29 12:38:43;;;;;;;1999.90;946.43;;;13.40;99.90;;;;;;5071104;28;20208;-51
2023/03/29 12:41:17;;;;;;;1999.90;645.57;;;13.20;99.90;;;;;;5065033;28;20681;-50